Time;durP1;ratioP1;P1;durP2;ratioP2;P2;SDS_P1;SDS_P2;PMS_P1;PMS_P2;Temp;Humidity;BMP_temperature;BMP_pressure;BME280_temperature;BME280_humidity;BME280_pressure;Samples;Min_cycle;Max_cycle;Signal;HPM_P1;HPM_P2
2022/01/22 00:00:07;;;;;;;3.00;2.07;;;;;;;5.22;99.06;101884.09;5042098;28;20233;-74
2022/01/22 00:02:33;;;;;;;2.87;1.83;;;;;;;5.25;99.09;101891.97;5038185;28;20677;-74
2022/01/22 00:05:01;;;;;;;2.93;1.70;;;;;;;5.26;99.08;101884.91;5041858;28;20589;-74
2022/01/22 00:07:28;;;;;;;3.07;2.10;;;;;;;5.27;99.24;101876.09;5037496;28;20230;-74
2022/01/22 00:10:00;;;;;;;2.43;1.90;;;;;;;5.26;99.08;101880.50;5043889;28;20226;-74
2022/01/22 00:12:43;;;;;;;1.93;1.73;;;;;;;5.28;99.01;101876.03;5037373;28;20209;-75
2022/01/22 00:15:12;;;;;;;2.47;1.77;;;;;;;5.31;99.06;101875.13;5034645;28;20225;-74
2022/01/22 00:17:39;;;;;;;3.17;1.70;;;;;;;5.29;99.14;101882.19;5036998;28;20206;-75
2022/01/22 00:20:08;;;;;;;3.47;1.60;;;;;;;5.27;99.17;101879.59;5039524;28;20241;-75
2022/01/22 00:22:36;;;;;;;2.60;2.20;;;;;;;5.28;99.21;101883.97;5036231;28;20197;-74
2022/01/22 00:25:08;;;;;;;3.30;1.87;;;;;;;5.29;98.99;101876.91;5038774;28;20312;-74
2022/01/22 00:27:38;;;;;;;2.83;2.03;;;;;;;5.32;99.07;101876.84;5041401;28;20316;-74
2022/01/22 00:30:05;;;;;;;3.30;1.93;;;;;;;5.31;98.93;101873.34;5037261;28;20703;-74
2022/01/22 00:32:32;;;;;;;2.63;1.90;;;;;;;5.32;98.85;101868.94;5037063;28;20594;-74
2022/01/22 00:34:58;;;;;;;3.70;2.27;;;;;;;5.29;99.19;101864.59;5039152;28;20217;-74
2022/01/22 00:37:25;;;;;;;3.80;2.10;;;;;;;5.32;99.15;101845.16;5040615;28;20198;-74
2022/01/22 00:39:52;;;;;;;3.30;1.87;;;;;;;5.32;99.05;101872.44;5034478;28;20226;-73
2022/01/22 00:42:20;;;;;;;3.03;2.30;;;;;;;5.32;98.97;101858.38;5036492;28;20228;-73
2022/01/22 00:44:51;;;;;;;2.80;1.80;;;;;;;5.30;99.04;101863.69;5034485;28;20252;-74
2022/01/22 00:47:22;;;;;;;2.80;1.83;;;;;;;5.31;99.04;101869.84;5040206;28;20221;-73
2022/01/22 00:49:50;;;;;;;3.80;2.03;;;;;;;5.30;99.26;101868.97;5043582;28;20225;-73
2022/01/22 00:52:17;;;;;;;3.47;2.10;;;;;;;5.33;99.21;101868.91;5041292;28;20216;-74
2022/01/22 00:54:43;;;;;;;3.50;2.00;;;;;;;5.33;99.37;101884.75;5044942;28;20220;-73
2022/01/22 00:57:10;;;;;;;2.47;1.63;;;;;;;5.34;99.36;101885.63;5044912;28;20666;-73
2022/01/22 00:59:39;;;;;;;8.07;1.80;;;;;;;5.34;99.17;101882.97;5036954;28;20225;-73
2022/01/22 01:02:08;;;;;;;3.40;1.90;;;;;;;5.35;99.32;101880.31;5038510;28;20318;-74
2022/01/22 01:04:36;;;;;;;3.47;1.67;;;;;;;5.34;99.27;101873.28;5037233;28;20216;-74
2022/01/22 01:07:03;;;;;;;2.13;1.63;;;;;;;5.30;99.49;101884.81;5038253;28;20316;-73
2022/01/22 01:09:31;;;;;;;2.27;1.73;;;;;;;5.30;99.71;101890.09;5041147;28;20221;-74
2022/01/22 01:12:02;;;;;;;2.27;1.73;;;;;;;5.31;99.16;101883.03;5044031;28;20301;-73
2022/01/22 01:14:35;;;;;;;2.07;1.10;;;;;;;5.30;99.43;101887.44;5037295;28;20248;-73
2022/01/22 01:17:11;;;;;;;1.53;1.00;;;;;;;5.31;99.36;101883.03;5040881;28;20693;-73
2022/01/22 01:33:30;;;;;;;2.27;1.30;;;;;;;5.33;99.22;101895.31;5038872;28;20259;-74
2022/01/22 01:36:00;;;;;;;1.40;0.93;;;;;;;5.31;99.04;101883.91;5041170;28;20574;-73
2022/01/22 01:38:26;;;;;;;1.93;1.20;;;;;;;5.31;99.14;101883.91;5037586;28;20260;-73
2022/01/22 01:41:00;;;;;;;1.10;1.00;;;;;;;5.32;99.35;101895.34;5041457;28;20202;-74
2022/01/22 01:43:33;;;;;;;1.83;1.40;;;;;;;5.33;99.09;101882.09;5038512;28;20309;-73
2022/01/22 01:45:59;;;;;;;1.37;1.17;;;;;;;5.31;99.46;101881.28;5038485;28;21670;-73
2022/01/22 01:48:30;;;;;;;1.13;1.00;;;;;;;5.31;99.27;101898.88;5035848;28;20589;-74
2022/01/22 01:50:59;;;;;;;1.10;1.00;;;;;;;5.32;99.23;101885.66;5038069;28;20284;-74
2022/01/22 01:53:43;;;;;;;1.87;1.10;;;;;;;5.34;99.25;101889.13;5037635;28;20571;-73
2022/01/22 01:58:53;;;;;;;2.17;1.23;;;;;;;5.30;99.41;101879.53;5036171;28;20604;-74
2022/01/22 02:01:21;;;;;;;1.77;1.20;;;;;;;5.31;99.54;101880.41;5038308;28;20658;-73
2022/01/22 02:03:47;;;;;;;1.40;1.10;;;;;;;5.31;99.58;101880.41;5045362;28;21037;-73
2022/01/22 02:06:16;;;;;;;1.20;1.10;;;;;;;5.32;99.39;101879.50;5045929;28;20761;-73
2022/01/22 02:08:42;;;;;;;1.40;1.27;;;;;;;5.33;99.54;101881.25;5043284;28;20318;-73
2022/01/22 02:11:10;;;;;;;1.20;1.10;;;;;;;5.34;99.46;101882.97;5046487;28;20220;-73
2022/01/22 02:13:47;;;;;;;1.70;1.40;;;;;;;5.34;99.11;101880.34;5042770;28;20198;-73
2022/01/22 02:24:39;;;;;;;1.83;1.50;;;;;;;5.31;98.99;101894.47;5044591;28;21234;-73
2022/01/22 02:27:06;;;;;;;2.07;1.10;;;;;;;5.30;99.49;101898.03;5038735;28;20329;-74
2022/01/22 02:29:33;;;;;;;1.60;1.30;;;;;;;5.33;99.33;101892.69;5047076;28;20275;-73
2022/01/22 02:32:17;;;;;;;2.40;1.70;;;;;;;5.34;99.09;101889.13;5046497;28;20206;-73
2022/01/22 02:34:51;;;;;;;1.90;1.50;;;;;;;5.35;98.98;101892.66;5044821;28;20573;-74
2022/01/22 02:37:21;;;;;;;2.70;1.70;;;;;;;5.32;99.23;101890.94;5046528;28;20194;-74
2022/01/22 02:39:59;;;;;;;2.50;1.80;;;;;;;5.35;99.16;101892.66;5039778;28;20269;-73
2022/01/22 02:42:32;;;;;;;2.10;1.70;;;;;;;5.37;98.99;101904.06;5042174;28;20202;-73
2022/01/22 02:44:58;;;;;;;2.67;1.73;;;;;;;5.35;99.00;101893.50;5040287;28;20292;-73
2022/01/22 02:47:25;;;;;;;2.17;1.83;;;;;;;5.37;99.57;101894.34;5041550;28;20428;-72
2022/01/22 02:49:53;;;;;;;3.27;2.00;;;;;;;5.35;99.03;101912.00;5041941;28;20228;-73
2022/01/22 02:52:20;;;;;;;3.37;1.83;;;;;;;5.36;99.19;101903.19;5043909;28;20210;-73
2022/01/22 02:54:47;;;;;;;2.57;1.77;;;;;;;5.37;99.01;101904.06;5038293;28;20212;-74
2022/01/22 02:57:14;;;;;;;3.10;1.90;;;;;;;5.37;99.07;101898.75;5043037;28;20206;-73
2022/01/22 02:59:40;;;;;;;3.80;2.30;;;;;;;5.37;99.07;101907.56;5043632;28;20230;-72
2022/01/22 03:02:12;;;;;;;3.00;2.30;;;;;;;5.41;99.15;101905.69;5043239;28;20206;-73
2022/01/22 03:04:39;;;;;;;2.67;2.07;;;;;;;5.40;98.52;101911.88;5041931;28;20232;-73
2022/01/22 03:07:07;;;;;;;3.13;1.90;;;;;;;5.41;99.01;101911.84;5040375;28;20205;-73
2022/01/22 03:09:41;;;;;;;3.30;2.40;;;;;;;5.40;99.10;101912.75;5042604;28;20658;-73
2022/01/22 03:12:29;;;;;;;3.90;2.30;;;;;;;5.41;98.94;101914.50;5041531;28;20245;-73
2022/01/22 03:17:52;;;;;;;2.97;2.33;;;;;;;5.40;99.19;101928.59;5043930;28;20644;-74
2022/01/22 03:20:36;;;;;;;3.50;2.40;;;;;;;5.37;99.05;101926.06;5040968;28;20264;-73
2022/01/22 03:23:11;;;;;;;3.13;2.23;;;;;;;5.37;99.81;101928.69;5041713;28;20600;-73
2022/01/22 03:28:27;;;;;;;3.43;2.40;;;;;;;5.41;99.12;101917.13;5045063;28;20286;-73
2022/01/22 03:30:54;;;;;;;3.67;2.60;;;;;;;5.43;99.36;101925.03;5045030;28;20745;-73
2022/01/22 03:33:23;;;;;;;3.30;2.40;;;;;;;5.40;99.46;101920.69;5047087;28;20790;-73
2022/01/22 03:35:55;;;;;;;4.57;2.23;;;;;;;5.42;99.68;101937.38;5040960;28;20218;-73
2022/01/22 03:38:22;;;;;;;4.53;2.80;;;;;;;5.44;99.69;101942.63;5047491;28;20213;-73
2022/01/22 03:40:50;;;;;;;4.60;3.00;;;;;;;5.43;99.92;101948.81;5042792;28;20237;-73
2022/01/22 03:43:19;;;;;;;3.60;2.57;;;;;;;5.44;99.59;101951.41;5038971;28;20202;-73
2022/01/22 03:45:46;;;;;;;3.70;2.50;;;;;;;5.47;99.36;101942.56;5043633;28;20208;-73
2022/01/22 03:48:12;;;;;;;5.63;2.73;;;;;;;5.45;99.78;101936.44;5046176;28;20286;-73
2022/01/22 03:50:39;;;;;;;3.13;2.40;;;;;;;5.47;99.65;101951.34;5046522;28;20224;-73
2022/01/22 03:53:05;;;;;;;4.10;2.53;;;;;;;5.46;99.50;101957.53;5045461;28;20623;-73
2022/01/22 03:55:43;;;;;;;4.63;2.93;;;;;;;5.46;99.67;101954.03;5044110;28;20583;-73
2022/01/22 03:58:11;;;;;;;5.07;2.80;;;;;;;5.47;100.00;101961.06;5043210;28;20247;-73
2022/01/22 04:00:38;;;;;;;3.87;2.77;;;;;;;5.48;99.72;101961.03;5047893;28;20574;-73
2022/01/22 04:06:05;;;;;;;3.93;2.67;;;;;;;5.46;99.88;101962.84;5043216;28;20956;-72
2022/01/22 04:08:32;;;;;;;4.60;3.03;;;;;;;5.45;100.00;101965.50;5045553;28;20598;-74
2022/01/22 04:10:58;;;;;;;4.50;2.60;;;;;;;5.46;100.00;101954.91;5040829;28;20210;-73
2022/01/22 04:13:32;;;;;;;3.70;2.70;;;;;;;5.48;100.00;101961.03;5050084;28;20201;-73
2022/01/22 04:15:58;;;;;;;4.77;2.67;;;;;;;5.47;100.00;101953.13;5048214;28;20212;-73
2022/01/22 04:26:42;;;;;;;4.80;2.83;;;;;;;5.49;100.00;101959.25;5046067;28;20212;-73
2022/01/22 04:29:10;;;;;;;5.10;3.27;;;;;;;5.50;100.00;101956.59;5035076;28;20607;-73
2022/01/22 04:31:36;;;;;;;5.97;3.23;;;;;;;5.51;100.00;101958.31;5048544;28;20202;-73
2022/01/22 04:34:03;;;;;;;5.03;3.37;;;;;;;5.52;100.00;101951.28;5036995;28;20212;-73
2022/01/22 04:36:29;;;;;;;4.67;3.00;;;;;;;5.53;100.00;101960.94;5044896;28;20212;-73
2022/01/22 04:38:57;;;;;;;4.67;3.20;;;;;;;5.51;100.00;101953.03;5048070;28;20260;-73
2022/01/22 04:41:23;;;;;;;4.17;3.07;;;;;;;5.53;100.00;101951.25;5047658;28;20210;-72
2022/01/22 04:43:57;;;;;;;5.80;3.70;;;;;;;5.56;100.00;101952.91;5045463;28;20205;-72
2022/01/22 04:46:38;;;;;;;5.60;3.13;;;;;;;5.56;100.00;101960.84;5046695;28;20225;-74
2022/01/22 04:49:10;;;;;;;5.87;3.30;;;;;;;5.57;100.00;101967.88;5049063;28;20725;-73
2022/01/22 04:57:06;;;;;;;4.50;3.37;;;;;;;5.57;100.00;101975.81;5049131;28;20217;-73
2022/01/22 04:59:32;;;;;;;6.97;4.10;;;;;;;5.55;100.00;101977.63;5049377;28;20233;-73
2022/01/22 05:02:00;;;;;;;8.00;3.60;;;;;;;5.57;100.00;101974.03;5035970;28;20205;-73
2022/01/22 05:04:27;;;;;;;6.67;4.37;;;;;;;5.58;100.00;101974.91;5040620;28;20224;-73
2022/01/22 05:06:53;;;;;;;4.27;2.87;;;;;;;5.59;100.00;101982.78;5048409;28;20214;-74
2022/01/22 05:09:20;;;;;;;5.33;3.40;;;;;;;5.62;100.00;101986.28;5044446;28;20225;-73
2022/01/22 05:11:47;;;;;;;6.27;3.40;;;;;;;5.63;100.00;101982.72;5043776;28;20206;-74
2022/01/22 05:14:13;;;;;;;5.93;3.20;;;;;;;5.64;100.00;101984.47;5034830;28;20869;-74
2022/01/22 05:16:40;;;;;;;4.87;3.20;;;;;;;5.63;100.00;101993.31;5038371;28;20209;-74
2022/01/22 05:19:13;;;;;;;5.77;3.67;;;;;;;5.64;100.00;101984.47;5042186;28;20256;-73
2022/01/22 05:21:41;;;;;;;5.87;3.23;;;;;;;5.65;100.00;101991.50;5038197;28;20202;-73
2022/01/22 05:24:12;;;;;;;4.30;2.93;;;;;;;5.65;100.00;101988.88;5041173;28;20229;-74
2022/01/22 05:27:10;;;;;;;4.90;2.90;;;;;;;5.64;100.00;101995.06;5040971;28;20219;-74
2022/01/22 05:32:32;;;;;;;5.30;3.10;;;;;;;5.66;100.00;102003.81;5039947;28;20688;-74
2022/01/22 05:37:45;;;;;;;4.40;2.07;;;;;;;5.65;100.00;102008.22;5043363;28;20292;-73
2022/01/22 05:40:11;;;;;;;4.60;2.50;;;;;;;5.65;100.00;101999.44;5045418;28;20233;-72
2022/01/22 05:42:38;;;;;;;3.40;2.20;;;;;;;5.66;100.00;102007.34;5047205;28;20204;-74
2022/01/22 05:45:05;;;;;;;4.10;2.27;;;;;;;5.66;100.00;102014.38;5044052;28;20214;-74
2022/01/22 05:47:32;;;;;;;4.40;2.43;;;;;;;5.66;100.00;102022.31;5047657;28;20216;-72
2022/01/22 05:50:01;;;;;;;5.80;3.07;;;;;;;5.68;100.00;102024.03;5045687;28;20251;-73
2022/01/22 05:52:34;;;;;;;5.77;2.90;;;;;;;5.68;100.00;102031.97;5043646;28;20294;-72
2022/01/22 05:55:27;;;;;;;5.93;2.80;;;;;;;5.68;100.00;102036.38;5044257;28;20582;-72
2022/01/22 06:00:38;;;;;;;7.77;3.40;;;;;;;5.70;100.00;102042.50;5045527;28;20233;-73
2022/01/22 06:03:04;;;;;;;5.20;2.93;;;;;;;5.71;100.00;102038.97;5045218;28;20598;-72
2022/01/22 06:05:32;;;;;;;4.73;3.10;;;;;;;5.71;100.00;102038.97;5042906;28;20210;-72
2022/01/22 06:07:59;;;;;;;4.47;2.83;;;;;;;5.73;100.00;102034.53;5044222;28;20212;-72
2022/01/22 06:10:28;;;;;;;4.40;2.60;;;;;;;5.73;100.00;102037.16;5046554;28;20224;-72
2022/01/22 06:13:10;;;;;;;3.73;2.30;;;;;;;5.74;100.00;102044.16;5041016;28;20229;-73
2022/01/22 06:15:37;;;;;;;2.93;2.20;;;;;;;5.76;100.00;102050.28;5046146;28;20281;-73
2022/01/22 06:18:04;;;;;;;4.13;2.40;;;;;;;5.76;100.00;102058.22;5041230;28;20206;-73
2022/01/22 06:20:32;;;;;;;3.40;1.87;;;;;;;5.76;100.00;102063.50;5046116;28;20233;-74
2022/01/22 06:22:58;;;;;;;2.70;1.80;;;;;;;5.75;100.00;102061.75;5043589;28;20202;-74
2022/01/22 06:25:25;;;;;;;3.03;2.00;;;;;;;5.76;100.00;102069.66;5043917;28;20212;-74
2022/01/22 06:27:51;;;;;;;2.47;1.67;;;;;;;5.75;100.00;102067.91;5046321;28;20205;-73
2022/01/22 06:30:19;;;;;;;2.60;1.70;;;;;;;5.74;100.00;102074.09;5044563;28;20226;-74
2022/01/22 06:32:46;;;;;;;3.10;2.07;;;;;;;5.75;100.00;102077.63;5047334;28;20209;-74
2022/01/22 06:35:13;;;;;;;2.50;1.60;;;;;;;5.75;100.00;102077.63;5046015;28;20217;-73
2022/01/22 06:37:41;;;;;;;2.47;1.57;;;;;;;5.76;100.00;102079.38;5041825;28;20572;-73
2022/01/22 06:42:53;;;;;;;3.00;1.80;;;;;;;5.75;100.00;102080.25;5043046;28;20221;-73
2022/01/22 06:45:20;;;;;;;2.53;1.70;;;;;;;5.76;100.00;102089.94;5037953;28;20221;-72
2022/01/22 06:47:46;;;;;;;2.87;1.63;;;;;;;5.76;100.00;102090.81;5045216;28;20205;-73
2022/01/22 06:50:13;;;;;;;3.70;2.27;;;;;;;5.77;100.00;102094.31;5048279;28;20226;-73
2022/01/22 06:52:41;;;;;;;3.83;1.90;;;;;;;5.77;100.00;102096.97;5045927;28;20202;-72
2022/01/22 06:55:10;;;;;;;3.70;2.00;;;;;;;5.75;100.00;102094.34;5049593;28;20220;-73
2022/01/22 06:57:37;;;;;;;3.27;2.03;;;;;;;5.77;100.00;102096.97;5050320;28;20209;-72
2022/01/22 07:00:04;;;;;;;2.47;1.63;;;;;;;5.77;100.00;102096.97;5049368;28;20233;-73
2022/01/22 07:02:31;;;;;;;3.70;1.83;;;;;;;5.76;100.00;102100.50;5039499;28;20205;-72
2022/01/22 07:04:57;;;;;;;3.90;2.37;;;;;;;5.76;100.00;102104.03;5045068;28;20206;-74
2022/01/22 07:07:24;;;;;;;3.20;2.00;;;;;;;5.76;100.00;102105.81;5048494;28;20686;-72
2022/01/22 07:09:52;;;;;;;6.57;2.30;;;;;;;5.78;100.00;102109.28;5048999;28;20234;-72
2022/01/22 07:12:18;;;;;;;2.60;1.60;;;;;;;5.77;100.00;102110.19;5050919;28;20206;-72
2022/01/22 07:14:48;;;;;;;3.17;1.80;;;;;;;5.77;100.00;102116.34;5047212;28;20652;-72
2022/01/22 07:17:15;;;;;;;3.10;1.60;;;;;;;5.78;100.00;102114.56;5046550;28;20216;-73
2022/01/22 07:19:43;;;;;;;2.20;1.70;;;;;;;5.78;100.00;102118.09;5044040;28;20252;-72
2022/01/22 07:22:30;;;;;;;4.93;2.33;;;;;;;5.79;100.00;102126.88;5047648;28;20229;-73
2022/01/22 07:24:58;;;;;;;5.17;3.70;;;;;;;5.79;100.00;102118.97;5051028;28;20210;-73
2022/01/22 07:27:25;;;;;;;5.23;3.87;;;;;;;5.79;100.00;102121.59;5051408;28;20213;-72
2022/01/22 07:29:51;;;;;;;4.73;2.90;;;;;;;5.79;100.00;102126.88;5047152;28;20230;-73
2022/01/22 07:32:27;;;;;;;3.50;2.40;;;;;;;5.79;100.00;102130.41;5044838;28;20212;-73
2022/01/22 07:34:54;;;;;;;4.13;2.10;;;;;;;5.79;100.00;102133.06;5038288;28;20308;-74
2022/01/22 07:37:21;;;;;;;4.20;2.87;;;;;;;5.79;100.00;102130.41;5050335;28;20197;-72
2022/01/22 07:39:48;;;;;;;3.93;2.60;;;;;;;5.78;100.00;102136.59;5048232;28;20228;-72
2022/01/22 07:42:16;;;;;;;6.37;3.33;;;;;;;5.79;100.00;102140.97;5048439;28;20225;-74
2022/01/22 07:44:42;;;;;;;4.70;3.13;;;;;;;5.79;100.00;102132.19;5041128;28;20208;-71
2022/01/22 07:47:10;;;;;;;5.77;3.30;;;;;;;5.79;100.00;102126.88;5046080;28;20204;-73
2022/01/22 07:49:36;;;;;;;6.50;3.67;;;;;;;5.79;100.00;102132.19;5043102;28;20707;-71
2022/01/22 07:52:03;;;;;;;6.23;3.87;;;;;;;5.80;100.00;102133.91;5040549;28;20583;-74
2022/01/22 07:54:30;;;;;;;8.00;4.57;;;;;;;5.80;100.00;102140.09;5043361;28;20712;-72
2022/01/22 07:56:57;;;;;;;6.97;5.03;;;;;;;5.79;100.00;102142.75;5043751;28;20198;-72
2022/01/22 07:59:25;;;;;;;7.53;5.17;;;;;;;5.81;100.00;102143.59;5045840;28;20252;-72
2022/01/22 08:01:51;;;;;;;7.93;4.53;;;;;;;5.80;100.00;102140.09;5047442;28;20332;-74
2022/01/22 08:04:23;;;;;;;7.50;4.67;;;;;;;5.79;100.00;102133.06;5035427;28;20566;-72
2022/01/22 08:06:50;;;;;;;8.73;4.97;;;;;;;5.79;100.00;102132.19;5041535;28;20220;-73
2022/01/22 08:09:17;;;;;;;8.57;5.93;;;;;;;5.80;100.00;102134.78;5035845;28;20229;-72
2022/01/22 08:11:43;;;;;;;7.03;4.60;;;;;;;5.81;100.00;102140.94;5042816;28;20321;-73
2022/01/22 08:14:10;;;;;;;7.00;4.87;;;;;;;5.81;100.00;102138.31;5040434;28;20202;-72
2022/01/22 08:16:39;;;;;;;9.50;5.47;;;;;;;5.81;100.00;102139.19;5040660;28;20249;-72
2022/01/22 08:19:06;;;;;;;8.90;5.17;;;;;;;5.82;100.00;102138.28;5043278;28;20722;-72
2022/01/22 08:21:32;;;;;;;7.60;5.03;;;;;;;5.83;100.00;102139.16;5042608;28;20343;-72
2022/01/22 08:23:59;;;;;;;9.60;5.67;;;;;;;5.84;100.00;102143.53;5037901;28;20660;-74
2022/01/22 08:26:30;;;;;;;10.53;5.60;;;;;;;5.83;100.00;102139.16;5043496;28;20683;-72
2022/01/22 08:28:58;;;;;;;10.10;5.27;;;;;;;5.83;100.00;102142.66;5039536;28;20226;-72
2022/01/22 08:31:39;;;;;;;7.97;5.33;;;;;;;5.84;100.00;102146.19;5043387;28;20202;-72
2022/01/22 08:36:51;;;;;;;10.10;4.97;;;;;;;5.82;100.00;102142.69;5037128;28;20217;-72
2022/01/22 08:39:19;;;;;;;7.70;4.77;;;;;;;5.83;100.00;102141.81;5037549;28;20244;-73
2022/01/22 08:41:46;;;;;;;10.30;5.60;;;;;;;5.81;100.00;102147.13;5034259;28;20591;-72
2022/01/22 08:44:13;;;;;;;7.70;5.33;;;;;;;5.82;100.00;102153.28;5043037;28;20205;-72
2022/01/22 08:46:43;;;;;;;8.33;5.37;;;;;;;5.83;100.00;102155.03;5044818;28;20240;-72
2022/01/22 08:49:13;;;;;;;7.67;5.10;;;;;;;5.82;100.00;102155.91;5038288;28;20904;-72
2022/01/22 08:51:40;;;;;;;12.33;5.13;;;;;;;5.82;100.00;102153.28;5042255;28;20201;-73
2022/01/22 08:54:09;;;;;;;9.03;5.00;;;;;;;5.81;100.00;102162.97;5043504;28;20211;-72
2022/01/22 08:56:42;;;;;;;8.07;4.60;;;;;;;5.82;100.00;102164.72;5039761;28;20550;-73
2022/01/22 08:59:09;;;;;;;10.67;5.83;;;;;;;5.84;100.00;102169.97;5041054;28;20244;-73
2022/01/22 09:01:36;;;;;;;9.67;5.17;;;;;;;5.85;100.00;102169.09;5035673;28;20288;-73
2022/01/22 09:04:03;;;;;;;9.80;5.43;;;;;;;5.86;100.00;102178.75;5039709;28;20212;-72
2022/01/22 09:06:32;;;;;;;9.10;4.70;;;;;;;5.85;100.00;102174.38;5037770;28;20214;-73
2022/01/22 09:09:08;;;;;;;9.80;4.83;;;;;;;5.84;100.00;102173.50;5036873;28;20253;-73
2022/01/22 09:11:35;;;;;;;8.43;4.83;;;;;;;5.85;100.00;102184.94;5037766;28;20305;-73
2022/01/22 09:14:02;;;;;;;7.83;4.63;;;;;;;5.84;100.00;102181.44;5037177;28;21247;-72
2022/01/22 09:16:29;;;;;;;7.83;4.37;;;;;;;5.85;100.00;102184.94;5033647;28;20295;-73
2022/01/22 09:19:00;;;;;;;9.67;4.10;;;;;;;5.86;100.00;102186.69;5033598;28;20284;-71
2022/01/22 09:21:27;;;;;;;8.63;3.90;;;;;;;5.87;100.00;102191.09;5038935;28;20232;-72
2022/01/22 09:23:55;;;;;;;6.20;3.60;;;;;;;5.88;100.00;102196.38;5036977;28;20209;-72
2022/01/22 09:26:21;;;;;;;7.00;3.17;;;;;;;5.88;100.00;102193.72;5040753;28;20559;-72
2022/01/22 09:28:48;;;;;;;7.57;3.70;;;;;;;5.88;100.00;102193.72;5038426;28;21077;-72
2022/01/22 09:31:15;;;;;;;9.27;3.60;;;;;;;5.88;99.89;102195.47;5034866;28;20312;-73
2022/01/22 09:33:43;;;;;;;5.93;3.13;;;;;;;5.86;100.00;102189.34;5033182;28;20236;-72
2022/01/22 09:36:10;;;;;;;5.23;3.73;;;;;;;5.86;100.00;102197.28;5038025;28;20209;-73
2022/01/22 09:38:37;;;;;;;9.23;4.70;;;;;;;5.88;100.00;102187.53;5034667;28;21474;-73
2022/01/22 09:41:06;;;;;;;8.77;5.27;;;;;;;5.86;100.00;102192.84;5038850;28;20217;-74
2022/01/22 09:43:33;;;;;;;7.37;3.97;;;;;;;5.86;100.00;102194.63;5038650;28;20213;-73
2022/01/22 09:46:01;;;;;;;6.30;3.53;;;;;;;5.86;100.00;102191.97;5037509;28;20216;-73
2022/01/22 09:48:27;;;;;;;5.77;3.37;;;;;;;5.86;100.00;102205.19;5043175;28;20300;-74
2022/01/22 09:50:54;;;;;;;7.13;4.00;;;;;;;5.86;100.00;102207.84;5037333;28;20227;-73
2022/01/22 09:53:20;;;;;;;7.27;3.60;;;;;;;5.87;100.00;102210.47;5034319;28;20667;-73
2022/01/22 09:55:47;;;;;;;6.07;3.73;;;;;;;5.86;100.00;102207.84;5037344;28;20206;-74
2022/01/22 09:58:15;;;;;;;7.20;4.20;;;;;;;5.88;100.00;102217.53;5037349;28;20213;-74
2022/01/22 10:00:41;;;;;;;7.67;5.23;;;;;;;5.88;100.00;102212.25;5035704;28;20221;-74
2022/01/22 10:03:16;;;;;;;7.53;4.33;;;;;;;5.88;100.00;102221.91;5035767;28;20205;-73
2022/01/22 10:05:43;;;;;;;10.77;7.03;;;;;;;5.88;100.00;102221.91;5035124;28;20209;-73
2022/01/22 10:08:28;;;;;;;15.03;11.77;;;;;;;5.88;99.98;102212.25;5035977;28;20208;-73
2022/01/22 10:10:55;;;;;;;9.47;4.97;;;;;;;5.89;100.00;102223.69;5033626;28;21044;-73
2022/01/22 10:13:40;;;;;;;7.37;5.73;;;;;;;5.91;100.00;102228.03;5031300;28;20214;-72
2022/01/22 10:16:12;;;;;;;7.73;6.57;;;;;;;5.93;100.00;102230.63;5035329;28;20207;-72
2022/01/22 10:18:38;;;;;;;7.07;3.37;;;;;;;5.92;100.00;102224.47;5041333;28;20198;-72
2022/01/22 10:21:09;;;;;;;4.53;3.77;;;;;;;5.90;100.00;102231.59;5039924;28;20206;-73
2022/01/22 10:23:39;;;;;;;7.63;4.23;;;;;;;5.91;100.00;102222.72;5039709;28;20205;-72
2022/01/22 10:26:07;;;;;;;6.90;3.97;;;;;;;5.93;99.84;102220.06;5038660;28;20671;-72
2022/01/22 10:28:43;;;;;;;4.77;3.70;;;;;;;5.95;100.00;102218.25;5041431;28;20206;-73
2022/01/22 10:31:18;;;;;;;5.13;4.27;;;;;;;5.95;99.69;102223.56;5038880;28;20256;-72
2022/01/22 10:34:03;;;;;;;7.00;3.97;;;;;;;5.96;99.69;102224.44;5036890;28;20260;-74
2022/01/22 10:36:29;;;;;;;7.37;4.90;;;;;;;5.99;99.63;102225.25;5038115;28;20206;-73
2022/01/22 10:38:56;;;;;;;5.83;4.20;;;;;;;6.02;99.88;102213.75;5038951;28;20233;-71
2022/01/22 10:41:33;;;;;;;5.03;3.97;;;;;;;6.05;99.85;102222.50;5034720;28;20204;-73
2022/01/22 10:44:02;;;;;;;6.70;4.17;;;;;;;6.07;99.73;102223.34;5037625;28;20215;-73
2022/01/22 10:46:43;;;;;;;5.20;3.03;;;;;;;6.08;99.04;102222.44;5035105;28;20211;-72
2022/01/22 10:49:11;;;;;;;6.40;3.00;;;;;;;6.13;98.94;102228.47;5029771;28;20233;-73
2022/01/22 10:51:46;;;;;;;6.07;3.37;;;;;;;6.13;98.53;102233.78;5035261;28;20254;-72
2022/01/22 10:54:14;;;;;;;5.23;3.33;;;;;;;6.18;98.68;102231.91;5034006;28;20637;-73
2022/01/22 10:56:41;;;;;;;5.73;3.40;;;;;;;6.21;98.57;102236.28;5033596;28;20657;-73
2022/01/22 10:59:10;;;;;;;3.97;3.17;;;;;;;6.24;98.38;102236.22;5035196;28;20253;-73
2022/01/22 11:01:51;;;;;;;4.90;3.37;;;;;;;6.24;98.27;102231.81;5031793;28;20194;-72
2022/01/22 11:04:20;;;;;;;10.40;9.37;;;;;;;6.28;98.72;102244.03;5037648;28;20686;-72
2022/01/22 11:06:50;;;;;;;12.47;10.17;;;;;;;6.32;98.27;102234.28;5037607;28;20216;-72
2022/01/22 11:09:17;;;;;;;10.87;9.37;;;;;;;6.33;98.08;102243.97;5035445;28;20243;-72
2022/01/22 11:11:44;;;;;;;9.13;8.23;;;;;;;6.37;98.14;102250.06;5035367;28;20229;-72
2022/01/22 11:14:13;;;;;;;3.77;2.93;;;;;;;6.40;98.31;102247.38;5039571;28;20220;-73
2022/01/22 11:16:41;;;;;;;4.90;4.40;;;;;;;6.41;97.84;102243.81;5036811;28;20321;-73
2022/01/22 11:19:09;;;;;;;5.07;4.57;;;;;;;6.44;97.62;102249.06;5038536;28;20229;-72
2022/01/22 11:21:40;;;;;;;5.60;5.10;;;;;;;6.46;97.55;102248.09;5036162;28;20205;-74
2022/01/22 11:24:08;;;;;;;7.60;4.57;;;;;;;6.48;97.62;102242.75;5033896;28;20706;-72
2022/01/22 11:26:38;;;;;;;5.03;4.60;;;;;;;6.51;97.45;102242.69;5036468;28;20212;-72
2022/01/22 11:29:05;;;;;;;2.00;1.80;;;;;;;6.54;97.27;102242.66;5036363;28;20711;-73
2022/01/22 11:31:34;;;;;;;3.67;3.27;;;;;;;6.58;97.79;102252.28;5035518;28;20240;-72
2022/01/22 11:34:02;;;;;;;3.03;2.53;;;;;;;6.60;97.39;102254.00;5031131;28;20213;-73
2022/01/22 11:36:33;;;;;;;2.83;2.40;;;;;;;6.61;97.69;102255.72;5035928;28;20202;-73
2022/01/22 11:39:05;;;;;;;2.97;2.67;;;;;;;6.63;97.18;102253.91;5032320;28;20241;-75
2022/01/22 11:41:32;;;;;;;4.30;3.50;;;;;;;6.63;97.37;102253.91;5032340;28;20208;-73
2022/01/22 11:44:10;;;;;;;6.87;6.27;;;;;;;6.63;97.80;102256.53;5041163;28;20202;-73
2022/01/22 11:46:42;;;;;;;3.90;3.50;;;;;;;6.63;97.37;102250.38;5034455;28;20649;-73
2022/01/22 11:49:25;;;;;;;10.80;9.70;;;;;;;6.61;97.20;102255.72;5039205;28;20279;-73
2022/01/22 11:51:53;;;;;;;6.87;4.63;;;;;;;6.61;97.41;102255.72;5036175;28;20320;-73
2022/01/22 11:54:23;;;;;;;3.13;2.40;;;;;;;6.59;97.23;102254.00;5040110;28;20205;-73
2022/01/22 11:56:53;;;;;;;2.63;2.10;;;;;;;6.60;97.78;102255.75;5036820;28;20221;-74
2022/01/22 11:59:41;;;;;;;2.67;1.90;;;;;;;6.61;96.99;102257.50;5041970;28;20871;-72
2022/01/22 12:02:13;;;;;;;2.20;1.90;;;;;;;6.59;97.25;102248.72;5037066;28;20214;-75
2022/01/22 12:05:02;;;;;;;2.57;1.93;;;;;;;6.58;97.27;102258.44;5039790;28;20211;-73
2022/01/22 12:07:35;;;;;;;3.20;2.10;;;;;;;6.59;97.57;102262.84;5040122;28;20272;-73
2022/01/22 12:16:14;;;;;;;3.10;2.20;;;;;;;6.57;97.43;102262.00;5038420;28;20702;-74
2022/01/22 12:18:49;;;;;;;3.20;2.30;;;;;;;6.57;97.38;102258.47;5042915;28;20292;-73
2022/01/22 12:21:35;;;;;;;2.83;1.80;;;;;;;6.55;97.46;102265.56;5040297;28;20201;-74
2022/01/22 12:24:12;;;;;;;2.17;1.80;;;;;;;6.54;97.39;102259.41;5043223;28;20228;-74
2022/01/22 12:26:53;;;;;;;3.50;2.57;;;;;;;6.54;97.27;102256.75;5037305;28;20701;-73
2022/01/22 12:29:35;;;;;;;5.40;3.77;;;;;;;6.55;97.26;102262.91;5043428;28;20221;-74
2022/01/22 12:32:15;;;;;;;4.40;3.83;;;;;;;6.55;97.67;102263.78;5037643;28;20227;-73
2022/01/22 12:35:04;;;;;;;6.33;3.67;;;;;;;6.56;97.16;102267.31;5036469;28;20710;-71
2022/01/22 12:37:31;;;;;;;2.97;2.23;;;;;;;6.55;97.40;102249.69;5038219;28;20683;-73
2022/01/22 12:40:05;;;;;;;5.07;2.93;;;;;;;6.55;97.54;102253.22;5042421;28;20230;-73
2022/01/22 12:42:55;;;;;;;3.73;2.47;;;;;;;6.57;97.43;102256.69;5033892;28;20768;-73
2022/01/22 12:45:25;;;;;;;3.47;2.77;;;;;;;6.60;97.70;102258.41;5041612;28;20209;-73
2022/01/22 12:47:54;;;;;;;3.03;2.73;;;;;;;6.62;97.85;102267.19;5041666;28;20288;-73